sensor_id;sensor_type;location;lat;lon;timestamp;P1;durP1;ratioP1;P2;durP2;ratioP2
73142;SDS011;61343;53.694;9.988;2022-09-09T00:00:12;46.20;;;20.90;;
73142;SDS011;61343;53.694;9.988;2022-09-09T00:02:40;46.85;;;22.88;;
73142;SDS011;61343;53.694;9.988;2022-09-09T00:05:17;51.10;;;21.50;;
73142;SDS011;61343;53.694;9.988;2022-09-09T00:07:52;47.85;;;22.35;;
73142;SDS011;61343;53.694;9.988;2022-09-09T00:10:25;56.00;;;23.27;;
73142;SDS011;61343;53.694;9.988;2022-09-09T00:13:11;75.10;;;22.10;;
73142;SDS011;61343;53.694;9.988;2022-09-09T00:15:47;55.15;;;22.23;;
73142;SDS011;61343;53.694;9.988;2022-09-09T00:18:27;56.25;;;22.70;;
73142;SDS011;61343;53.694;9.988;2022-09-09T00:21:05;52.97;;;22.73;;
73142;SDS011;61343;53.694;9.988;2022-09-09T00:23:38;56.70;;;20.90;;
73142;SDS011;61343;53.694;9.988;2022-09-09T00:28:55;51.22;;;22.70;;
73142;SDS011;61343;53.694;9.988;2022-09-09T00:31:29;55.75;;;22.35;;
73142;SDS011;61343;53.694;9.988;2022-09-09T00:33:58;47.60;;;20.15;;
73142;SDS011;61343;53.694;9.988;2022-09-09T00:36:29;55.63;;;21.42;;
73142;SDS011;61343;53.694;9.988;2022-09-09T00:38:59;56.47;;;21.27;;
73142;SDS011;61343;53.694;9.988;2022-09-09T00:41:29;66.72;;;23.25;;
73142;SDS011;61343;53.694;9.988;2022-09-09T00:44:15;68.35;;;24.55;;
73142;SDS011;61343;53.694;9.988;2022-09-09T00:52:44;52.13;;;21.73;;
73142;SDS011;61343;53.694;9.988;2022-09-09T00:55:21;55.58;;;23.13;;
73142;SDS011;61343;53.694;9.988;2022-09-09T00:57:58;49.47;;;22.60;;
73142;SDS011;61343;53.694;9.988;2022-09-09T01:11:26;55.60;;;21.98;;
73142;SDS011;61343;53.694;9.988;2022-09-09T01:14:01;75.63;;;22.50;;
73142;SDS011;61343;53.694;9.988;2022-09-09T01:16:35;107.13;;;22.95;;
73142;SDS011;61343;53.694;9.988;2022-09-09T01:19:01;56.03;;;22.73;;
73142;SDS011;61343;53.694;9.988;2022-09-09T01:27:10;66.20;;;22.83;;
73142;SDS011;61343;53.694;9.988;2022-09-09T01:29:37;119.37;;;24.57;;
73142;SDS011;61343;53.694;9.988;2022-09-09T01:32:37;76.28;;;23.52;;
73142;SDS011;61343;53.694;9.988;2022-09-09T01:35:03;77.67;;;24.53;;
73142;SDS011;61343;53.694;9.988;2022-09-09T01:37:30;134.68;;;26.38;;
73142;SDS011;61343;53.694;9.988;2022-09-09T01:39:56;66.30;;;22.85;;
73142;SDS011;61343;53.694;9.988;2022-09-09T01:42:21;64.93;;;22.83;;
73142;SDS011;61343;53.694;9.988;2022-09-09T01:44:46;68.67;;;23.97;;
73142;SDS011;61343;53.694;9.988;2022-09-09T01:47:12;96.07;;;25.53;;
73142;SDS011;61343;53.694;9.988;2022-09-09T01:49:37;92.53;;;26.07;;
73142;SDS011;61343;53.694;9.988;2022-09-09T01:52:02;73.80;;;25.23;;
73142;SDS011;61343;53.694;9.988;2022-09-09T01:54:29;63.58;;;23.40;;
73142;SDS011;61343;53.694;9.988;2022-09-09T02:02:49;80.68;;;24.70;;
73142;SDS011;61343;53.694;9.988;2022-09-09T02:05:41;69.80;;;24.90;;
73142;SDS011;61343;53.694;9.988;2022-09-09T02:13:28;74.35;;;25.63;;
73142;SDS011;61343;53.694;9.988;2022-09-09T02:18:39;63.45;;;23.67;;
73142;SDS011;61343;53.694;9.988;2022-09-09T02:21:08;74.72;;;24.85;;
73142;SDS011;61343;53.694;9.988;2022-09-09T02:23:37;77.93;;;25.65;;
73142;SDS011;61343;53.694;9.988;2022-09-09T02:26:04;75.15;;;25.48;;
73142;SDS011;61343;53.694;9.988;2022-09-09T02:28:32;72.77;;;24.63;;
73142;SDS011;61343;53.694;9.988;2022-09-09T02:31:01;68.57;;;23.23;;
73142;SDS011;61343;53.694;9.988;2022-09-09T02:33:27;71.95;;;24.58;;
73142;SDS011;61343;53.694;9.988;2022-09-09T02:35:56;74.83;;;24.47;;
73142;SDS011;61343;53.694;9.988;2022-09-09T02:38:28;65.90;;;24.23;;
73142;SDS011;61343;53.694;9.988;2022-09-09T02:40:57;82.88;;;24.67;;
73142;SDS011;61343;53.694;9.988;2022-09-09T02:43:23;69.65;;;24.38;;
73142;SDS011;61343;53.694;9.988;2022-09-09T02:45:52;63.17;;;22.67;;
73142;SDS011;61343;53.694;9.988;2022-09-09T02:50:57;69.25;;;23.00;;
73142;SDS011;61343;53.694;9.988;2022-09-09T02:53:39;53.53;;;21.02;;
73142;SDS011;61343;53.694;9.988;2022-09-09T02:56:16;55.10;;;20.08;;
73142;SDS011;61343;53.694;9.988;2022-09-09T02:58:45;58.88;;;21.23;;
73142;SDS011;61343;53.694;9.988;2022-09-09T03:01:11;62.87;;;21.33;;
73142;SDS011;61343;53.694;9.988;2022-09-09T03:03:36;54.63;;;20.60;;
73142;SDS011;61343;53.694;9.988;2022-09-09T03:06:03;63.50;;;20.85;;
73142;SDS011;61343;53.694;9.988;2022-09-09T03:08:28;61.13;;;21.10;;
73142;SDS011;61343;53.694;9.988;2022-09-09T03:10:54;64.60;;;21.23;;
73142;SDS011;61343;53.694;9.988;2022-09-09T03:13:20;57.83;;;20.77;;
73142;SDS011;61343;53.694;9.988;2022-09-09T03:15:45;59.57;;;20.40;;
73142;SDS011;61343;53.694;9.988;2022-09-09T03:18:10;52.10;;;20.87;;
73142;SDS011;61343;53.694;9.988;2022-09-09T03:20:35;53.10;;;20.13;;
73142;SDS011;61343;53.694;9.988;2022-09-09T03:23:01;52.27;;;19.63;;
73142;SDS011;61343;53.694;9.988;2022-09-09T03:25:27;79.82;;;20.60;;
73142;SDS011;61343;53.694;9.988;2022-09-09T03:27:53;51.73;;;18.90;;
73142;SDS011;61343;53.694;9.988;2022-09-09T03:30:21;53.08;;;19.70;;
73142;SDS011;61343;53.694;9.988;2022-09-09T03:32:47;55.58;;;20.30;;
73142;SDS011;61343;53.694;9.988;2022-09-09T03:35:13;59.40;;;21.13;;
73142;SDS011;61343;53.694;9.988;2022-09-09T03:37:38;57.00;;;20.37;;
73142;SDS011;61343;53.694;9.988;2022-09-09T03:40:04;50.03;;;20.20;;
73142;SDS011;61343;53.694;9.988;2022-09-09T03:42:29;65.63;;;21.58;;
73142;SDS011;61343;53.694;9.988;2022-09-09T03:44:56;52.65;;;20.70;;
73142;SDS011;61343;53.694;9.988;2022-09-09T03:47:22;52.85;;;21.08;;
73142;SDS011;61343;53.694;9.988;2022-09-09T03:49:48;48.83;;;20.03;;
73142;SDS011;61343;53.694;9.988;2022-09-09T03:52:13;46.27;;;18.67;;
73142;SDS011;61343;53.694;9.988;2022-09-09T03:54:39;45.15;;;19.58;;
73142;SDS011;61343;53.694;9.988;2022-09-09T03:57:06;48.67;;;20.57;;
73142;SDS011;61343;53.694;9.988;2022-09-09T03:59:32;42.67;;;18.58;;
73142;SDS011;61343;53.694;9.988;2022-09-09T04:01:57;45.93;;;20.07;;
73142;SDS011;61343;53.694;9.988;2022-09-09T04:04:23;49.15;;;21.50;;
73142;SDS011;61343;53.694;9.988;2022-09-09T04:06:49;46.87;;;19.90;;
73142;SDS011;61343;53.694;9.988;2022-09-09T04:09:15;42.53;;;18.73;;
73142;SDS011;61343;53.694;9.988;2022-09-09T04:11:41;39.40;;;18.50;;
73142;SDS011;61343;53.694;9.988;2022-09-09T04:14:06;43.57;;;18.53;;
73142;SDS011;61343;53.694;9.988;2022-09-09T04:16:32;56.87;;;22.27;;
73142;SDS011;61343;53.694;9.988;2022-09-09T04:18:58;54.85;;;22.33;;
73142;SDS011;61343;53.694;9.988;2022-09-09T04:21:24;47.72;;;19.58;;
73142;SDS011;61343;53.694;9.988;2022-09-09T04:23:50;44.30;;;19.83;;
73142;SDS011;61343;53.694;9.988;2022-09-09T04:26:16;45.33;;;19.63;;
73142;SDS011;61343;53.694;9.988;2022-09-09T04:28:41;42.77;;;19.47;;
73142;SDS011;61343;53.694;9.988;2022-09-09T04:31:07;45.90;;;19.33;;
73142;SDS011;61343;53.694;9.988;2022-09-09T04:33:34;50.28;;;19.40;;
73142;SDS011;61343;53.694;9.988;2022-09-09T04:36:00;43.22;;;18.52;;
73142;SDS011;61343;53.694;9.988;2022-09-09T04:38:25;44.70;;;18.77;;
73142;SDS011;61343;53.694;9.988;2022-09-09T04:40:51;42.13;;;18.67;;
73142;SDS011;61343;53.694;9.988;2022-09-09T04:43:18;46.63;;;19.45;;
73142;SDS011;61343;53.694;9.988;2022-09-09T04:45:46;46.17;;;19.75;;
73142;SDS011;61343;53.694;9.988;2022-09-09T04:48:13;40.70;;;18.23;;
73142;SDS011;61343;53.694;9.988;2022-09-09T04:50:39;43.50;;;18.73;;
73142;SDS011;61343;53.694;9.988;2022-09-09T04:53:05;41.55;;;18.63;;
73142;SDS011;61343;53.694;9.988;2022-09-09T04:55:31;40.10;;;18.33;;
73142;SDS011;61343;53.694;9.988;2022-09-09T04:57:57;38.63;;;17.73;;
73142;SDS011;61343;53.694;9.988;2022-09-09T05:00:23;38.83;;;19.07;;
73142;SDS011;61343;53.694;9.988;2022-09-09T05:02:49;39.55;;;18.00;;
73142;SDS011;61343;53.694;9.988;2022-09-09T05:05:14;39.40;;;17.67;;
73142;SDS011;61343;53.694;9.988;2022-09-09T05:07:40;35.70;;;16.47;;
73142;SDS011;61343;53.694;9.988;2022-09-09T05:10:05;35.33;;;18.03;;
73142;SDS011;61343;53.694;9.988;2022-09-09T05:12:30;39.20;;;16.55;;
73142;SDS011;61343;53.694;9.988;2022-09-09T05:14:56;40.53;;;18.37;;
73142;SDS011;61343;53.694;9.988;2022-09-09T05:17:22;41.33;;;20.02;;
73142;SDS011;61343;53.694;9.988;2022-09-09T05:19:47;35.80;;;16.37;;
73142;SDS011;61343;53.694;9.988;2022-09-09T05:22:13;37.53;;;17.60;;
73142;SDS011;61343;53.694;9.988;2022-09-09T05:24:42;33.80;;;16.33;;
73142;SDS011;61343;53.694;9.988;2022-09-09T05:27:09;32.78;;;16.17;;
73142;SDS011;61343;53.694;9.988;2022-09-09T05:29:37;32.65;;;15.63;;
73142;SDS011;61343;53.694;9.988;2022-09-09T05:32:02;32.83;;;15.70;;
73142;SDS011;61343;53.694;9.988;2022-09-09T05:34:28;32.50;;;16.73;;
73142;SDS011;61343;53.694;9.988;2022-09-09T05:36:54;30.38;;;15.32;;
73142;SDS011;61343;53.694;9.988;2022-09-09T05:39:19;29.73;;;15.03;;
73142;SDS011;61343;53.694;9.988;2022-09-09T05:41:44;24.57;;;13.73;;
73142;SDS011;61343;53.694;9.988;2022-09-09T05:44:09;25.10;;;13.63;;
73142;SDS011;61343;53.694;9.988;2022-09-09T05:46:35;24.47;;;13.30;;
73142;SDS011;61343;53.694;9.988;2022-09-09T05:49:01;28.27;;;13.80;;
73142;SDS011;61343;53.694;9.988;2022-09-09T05:51:27;26.08;;;13.95;;
73142;SDS011;61343;53.694;9.988;2022-09-09T05:53:55;24.15;;;13.48;;
73142;SDS011;61343;53.694;9.988;2022-09-09T05:56:24;25.25;;;13.80;;
73142;SDS011;61343;53.694;9.988;2022-09-09T05:58:50;25.55;;;13.20;;
73142;SDS011;61343;53.694;9.988;2022-09-09T06:01:19;26.53;;;13.77;;
73142;SDS011;61343;53.694;9.988;2022-09-09T06:03:47;23.77;;;13.20;;
73142;SDS011;61343;53.694;9.988;2022-09-09T06:06:14;25.88;;;13.43;;
73142;SDS011;61343;53.694;9.988;2022-09-09T06:08:45;25.23;;;12.82;;
73142;SDS011;61343;53.694;9.988;2022-09-09T06:11:12;25.00;;;13.00;;
73142;SDS011;61343;53.694;9.988;2022-09-09T06:13:43;24.33;;;12.27;;
73142;SDS011;61343;53.694;9.988;2022-09-09T06:16:13;26.50;;;12.27;;
73142;SDS011;61343;53.694;9.988;2022-09-09T06:18:40;22.48;;;11.38;;
73142;SDS011;61343;53.694;9.988;2022-09-09T06:21:07;23.85;;;12.02;;
73142;SDS011;61343;53.694;9.988;2022-09-09T06:23:36;31.85;;;16.55;;
73142;SDS011;61343;53.694;9.988;2022-09-09T06:26:06;25.27;;;12.77;;
73142;SDS011;61343;53.694;9.988;2022-09-09T06:28:35;22.88;;;12.82;;
73142;SDS011;61343;53.694;9.988;2022-09-09T06:31:02;23.45;;;12.32;;
73142;SDS011;61343;53.694;9.988;2022-09-09T06:33:32;21.15;;;12.25;;
73142;SDS011;61343;53.694;9.988;2022-09-09T06:36:00;22.70;;;13.30;;
73142;SDS011;61343;53.694;9.988;2022-09-09T06:38:26;21.30;;;12.07;;
73142;SDS011;61343;53.694;9.988;2022-09-09T06:40:55;22.88;;;12.32;;
73142;SDS011;61343;53.694;9.988;2022-09-09T06:43:23;22.00;;;12.48;;
73142;SDS011;61343;53.694;9.988;2022-09-09T06:45:56;23.92;;;11.98;;
73142;SDS011;61343;53.694;9.988;2022-09-09T06:48:26;20.02;;;11.45;;
73142;SDS011;61343;53.694;9.988;2022-09-09T06:51:06;20.30;;;11.10;;
73142;SDS011;61343;53.694;9.988;2022-09-09T06:53:33;19.88;;;11.02;;
73142;SDS011;61343;53.694;9.988;2022-09-09T06:56:01;23.58;;;11.15;;
73142;SDS011;61343;53.694;9.988;2022-09-09T06:58:27;19.35;;;11.20;;
73142;SDS011;61343;53.694;9.988;2022-09-09T07:01:00;19.13;;;11.13;;
73142;SDS011;61343;53.694;9.988;2022-09-09T07:03:30;23.77;;;10.40;;
73142;SDS011;61343;53.694;9.988;2022-09-09T07:05:55;19.97;;;10.70;;
73142;SDS011;61343;53.694;9.988;2022-09-09T07:08:21;23.58;;;10.68;;
73142;SDS011;61343;53.694;9.988;2022-09-09T07:10:47;17.67;;;10.50;;
73142;SDS011;61343;53.694;9.988;2022-09-09T07:13:12;21.17;;;10.27;;
73142;SDS011;61343;53.694;9.988;2022-09-09T07:15:40;18.67;;;10.00;;
73142;SDS011;61343;53.694;9.988;2022-09-09T07:18:06;16.70;;;9.03;;
73142;SDS011;61343;53.694;9.988;2022-09-09T07:20:31;16.83;;;9.73;;
73142;SDS011;61343;53.694;9.988;2022-09-09T07:22:56;16.60;;;9.50;;
73142;SDS011;61343;53.694;9.988;2022-09-09T07:25:23;15.77;;;9.05;;
73142;SDS011;61343;53.694;9.988;2022-09-09T07:27:48;17.20;;;9.43;;
73142;SDS011;61343;53.694;9.988;2022-09-09T07:30:14;18.38;;;8.40;;
73142;SDS011;61343;53.694;9.988;2022-09-09T07:32:39;15.03;;;8.40;;
73142;SDS011;61343;53.694;9.988;2022-09-09T07:35:05;15.27;;;8.70;;
73142;SDS011;61343;53.694;9.988;2022-09-09T07:37:30;14.95;;;8.48;;
73142;SDS011;61343;53.694;9.988;2022-09-09T07:39:56;14.00;;;7.40;;
73142;SDS011;61343;53.694;9.988;2022-09-09T07:42:21;11.57;;;6.90;;
73142;SDS011;61343;53.694;9.988;2022-09-09T07:44:46;10.87;;;6.47;;
73142;SDS011;61343;53.694;9.988;2022-09-09T07:47:11;11.10;;;6.70;;
73142;SDS011;61343;53.694;9.988;2022-09-09T07:49:37;11.67;;;6.10;;
73142;SDS011;61343;53.694;9.988;2022-09-09T07:52:02;10.93;;;5.93;;
73142;SDS011;61343;53.694;9.988;2022-09-09T07:54:28;11.45;;;5.70;;
73142;SDS011;61343;53.694;9.988;2022-09-09T07:56:53;10.53;;;5.97;;
73142;SDS011;61343;53.694;9.988;2022-09-09T07:59:18;8.87;;;5.00;;
73142;SDS011;61343;53.694;9.988;2022-09-09T08:01:45;11.03;;;5.63;;
73142;SDS011;61343;53.694;9.988;2022-09-09T08:04:14;9.93;;;5.05;;
73142;SDS011;61343;53.694;9.988;2022-09-09T08:06:42;10.15;;;5.13;;
73142;SDS011;61343;53.694;9.988;2022-09-09T08:09:12;10.02;;;4.80;;
73142;SDS011;61343;53.694;9.988;2022-09-09T08:11:39;9.10;;;4.60;;
73142;SDS011;61343;53.694;9.988;2022-09-09T08:14:06;8.37;;;5.03;;
73142;SDS011;61343;53.694;9.988;2022-09-09T08:16:33;8.77;;;4.80;;
73142;SDS011;61343;53.694;9.988;2022-09-09T08:19:01;12.00;;;4.72;;
73142;SDS011;61343;53.694;9.988;2022-09-09T08:21:29;10.25;;;4.47;;
73142;SDS011;61343;53.694;9.988;2022-09-09T08:23:57;10.57;;;4.47;;
73142;SDS011;61343;53.694;9.988;2022-09-09T08:26:24;8.13;;;4.37;;
73142;SDS011;61343;53.694;9.988;2022-09-09T08:28:53;9.20;;;4.30;;
73142;SDS011;61343;53.694;9.988;2022-09-09T08:31:22;7.47;;;4.40;;
73142;SDS011;61343;53.694;9.988;2022-09-09T08:33:53;10.27;;;4.10;;
73142;SDS011;61343;53.694;9.988;2022-09-09T08:36:20;9.65;;;4.47;;
73142;SDS011;61343;53.694;9.988;2022-09-09T08:38:51;10.47;;;5.00;;
73142;SDS011;61343;53.694;9.988;2022-09-09T08:46:45;8.65;;;4.13;;
73142;SDS011;61343;53.694;9.988;2022-09-09T08:49:33;9.95;;;4.47;;
73142;SDS011;61343;53.694;9.988;2022-09-09T08:52:27;7.67;;;4.00;;
73142;SDS011;61343;53.694;9.988;2022-09-09T08:54:56;10.65;;;4.28;;
73142;SDS011;61343;53.694;9.988;2022-09-09T08:57:46;7.75;;;4.07;;
73142;SDS011;61343;53.694;9.988;2022-09-09T09:00:14;8.43;;;4.13;;
73142;SDS011;61343;53.694;9.988;2022-09-09T09:05:51;7.45;;;3.78;;
73142;SDS011;61343;53.694;9.988;2022-09-09T09:11:10;7.93;;;3.70;;
73142;SDS011;61343;53.694;9.988;2022-09-09T09:13:47;7.78;;;3.42;;
73142;SDS011;61343;53.694;9.988;2022-09-09T09:18:59;6.65;;;3.00;;
73142;SDS011;61343;53.694;9.988;2022-09-09T09:21:33;7.80;;;3.20;;
73142;SDS011;61343;53.694;9.988;2022-09-09T09:24:04;8.25;;;2.67;;
73142;SDS011;61343;53.694;9.988;2022-09-09T09:26:52;7.05;;;2.70;;
73142;SDS011;61343;53.694;9.988;2022-09-09T09:29:18;8.93;;;3.10;;
73142;SDS011;61343;53.694;9.988;2022-09-09T09:31:48;5.57;;;2.40;;
73142;SDS011;61343;53.694;9.988;2022-09-09T09:34:19;5.03;;;2.40;;
73142;SDS011;61343;53.694;9.988;2022-09-09T09:36:45;5.53;;;2.50;;
73142;SDS011;61343;53.694;9.988;2022-09-09T09:39:27;6.40;;;2.25;;
73142;SDS011;61343;53.694;9.988;2022-09-09T09:41:54;7.03;;;2.08;;
73142;SDS011;61343;53.694;9.988;2022-09-09T09:44:29;6.83;;;3.10;;
73142;SDS011;61343;53.694;9.988;2022-09-09T09:47:08;5.78;;;2.50;;
73142;SDS011;61343;53.694;9.988;2022-09-09T09:49:37;4.90;;;1.93;;
73142;SDS011;61343;53.694;9.988;2022-09-09T09:52:03;6.63;;;2.15;;
73142;SDS011;61343;53.694;9.988;2022-09-09T09:54:34;6.27;;;1.87;;
73142;SDS011;61343;53.694;9.988;2022-09-09T09:57:09;6.75;;;1.95;;
73142;SDS011;61343;53.694;9.988;2022-09-09T09:59:36;5.63;;;2.05;;
73142;SDS011;61343;53.694;9.988;2022-09-09T10:04:38;7.88;;;2.17;;
73142;SDS011;61343;53.694;9.988;2022-09-09T10:07:16;11.53;;;2.00;;
73142;SDS011;61343;53.694;9.988;2022-09-09T10:09:48;4.07;;;1.70;;
73142;SDS011;61343;53.694;9.988;2022-09-09T10:18:00;5.07;;;1.88;;
73142;SDS011;61343;53.694;9.988;2022-09-09T10:31:37;7.40;;;2.83;;
73142;SDS011;61343;53.694;9.988;2022-09-09T10:36:36;6.20;;;2.60;;
73142;SDS011;61343;53.694;9.988;2022-09-09T10:44:48;7.72;;;2.25;;
73142;SDS011;61343;53.694;9.988;2022-09-09T10:53:11;6.43;;;2.30;;
73142;SDS011;61343;53.694;9.988;2022-09-09T10:55:40;5.78;;;2.08;;
73142;SDS011;61343;53.694;9.988;2022-09-09T10:58:10;5.97;;;1.60;;
73142;SDS011;61343;53.694;9.988;2022-09-09T11:00:44;5.03;;;1.80;;
73142;SDS011;61343;53.694;9.988;2022-09-09T11:03:22;6.35;;;1.70;;
73142;SDS011;61343;53.694;9.988;2022-09-09T11:06:01;7.33;;;1.80;;
73142;SDS011;61343;53.694;9.988;2022-09-09T11:08:31;6.35;;;1.65;;
73142;SDS011;61343;53.694;9.988;2022-09-09T11:11:03;7.82;;;1.90;;
73142;SDS011;61343;53.694;9.988;2022-09-09T11:18:48;5.60;;;1.80;;
73142;SDS011;61343;53.694;9.988;2022-09-09T11:21:17;6.60;;;1.70;;
73142;SDS011;61343;53.694;9.988;2022-09-09T11:23:49;6.47;;;1.88;;
73142;SDS011;61343;53.694;9.988;2022-09-09T11:26:37;5.05;;;1.70;;
73142;SDS011;61343;53.694;9.988;2022-09-09T11:31:59;6.90;;;1.80;;
73142;SDS011;61343;53.694;9.988;2022-09-09T11:42:48;5.97;;;2.00;;
73142;SDS011;61343;53.694;9.988;2022-09-09T11:47:52;6.32;;;1.92;;
73142;SDS011;61343;53.694;9.988;2022-09-09T11:52:45;5.00;;;1.80;;
73142;SDS011;61343;53.694;9.988;2022-09-09T11:57:58;6.70;;;1.70;;
73142;SDS011;61343;53.694;9.988;2022-09-09T12:00:31;5.22;;;1.70;;
73142;SDS011;61343;53.694;9.988;2022-09-09T12:03:03;6.07;;;1.80;;
73142;SDS011;61343;53.694;9.988;2022-09-09T12:05:36;5.13;;;1.63;;
73142;SDS011;61343;53.694;9.988;2022-09-09T12:08:09;8.50;;;1.60;;
73142;SDS011;61343;53.694;9.988;2022-09-09T12:10:39;4.80;;;1.67;;
73142;SDS011;61343;53.694;9.988;2022-09-09T12:15:46;5.85;;;1.70;;
73142;SDS011;61343;53.694;9.988;2022-09-09T12:18:25;7.35;;;1.73;;
73142;SDS011;61343;53.694;9.988;2022-09-09T12:21:02;6.55;;;2.13;;
73142;SDS011;61343;53.694;9.988;2022-09-09T12:26:16;4.45;;;1.80;;
73142;SDS011;61343;53.694;9.988;2022-09-09T12:31:54;8.70;;;1.90;;
73142;SDS011;61343;53.694;9.988;2022-09-09T12:34:41;6.40;;;2.28;;
73142;SDS011;61343;53.694;9.988;2022-09-09T12:37:27;7.13;;;2.10;;
73142;SDS011;61343;53.694;9.988;2022-09-09T12:40:00;6.72;;;2.00;;
73142;SDS011;61343;53.694;9.988;2022-09-09T12:42:28;6.03;;;2.00;;
73142;SDS011;61343;53.694;9.988;2022-09-09T12:44:55;5.40;;;2.10;;
73142;SDS011;61343;53.694;9.988;2022-09-09T12:47:26;5.80;;;2.00;;
73142;SDS011;61343;53.694;9.988;2022-09-09T12:50:02;7.67;;;2.00;;
73142;SDS011;61343;53.694;9.988;2022-09-09T12:52:35;6.05;;;2.00;;
73142;SDS011;61343;53.694;9.988;2022-09-09T12:55:04;6.45;;;2.00;;
73142;SDS011;61343;53.694;9.988;2022-09-09T12:57:38;5.55;;;1.98;;
73142;SDS011;61343;53.694;9.988;2022-09-09T13:00:11;4.38;;;1.90;;
73142;SDS011;61343;53.694;9.988;2022-09-09T13:02:56;6.30;;;2.23;;
73142;SDS011;61343;53.694;9.988;2022-09-09T13:08:02;6.47;;;1.80;;
73142;SDS011;61343;53.694;9.988;2022-09-09T13:10:29;6.45;;;2.00;;
73142;SDS011;61343;53.694;9.988;2022-09-09T13:13:00;7.03;;;1.95;;
73142;SDS011;61343;53.694;9.988;2022-09-09T13:15:27;6.63;;;2.20;;
73142;SDS011;61343;53.694;9.988;2022-09-09T13:17:55;6.18;;;2.10;;
73142;SDS011;61343;53.694;9.988;2022-09-09T13:20:22;7.63;;;2.30;;
73142;SDS011;61343;53.694;9.988;2022-09-09T13:22:49;6.47;;;2.03;;
73142;SDS011;61343;53.694;9.988;2022-09-09T13:27:57;5.73;;;2.50;;
73142;SDS011;61343;53.694;9.988;2022-09-09T13:30:27;17.63;;;3.10;;
73142;SDS011;61343;53.694;9.988;2022-09-09T13:33:05;7.88;;;3.20;;
73142;SDS011;61343;53.694;9.988;2022-09-09T13:35:34;9.93;;;3.50;;
73142;SDS011;61343;53.694;9.988;2022-09-09T13:38:07;9.45;;;3.80;;
73142;SDS011;61343;53.694;9.988;2022-09-09T13:40:34;8.20;;;4.03;;
73142;SDS011;61343;53.694;9.988;2022-09-09T13:43:01;9.93;;;4.63;;
73142;SDS011;61343;53.694;9.988;2022-09-09T13:45:27;10.90;;;5.13;;
73142;SDS011;61343;53.694;9.988;2022-09-09T13:47:53;12.30;;;5.73;;
73142;SDS011;61343;53.694;9.988;2022-09-09T13:50:21;9.82;;;4.40;;
73142;SDS011;61343;53.694;9.988;2022-09-09T13:52:52;12.63;;;4.63;;
73142;SDS011;61343;53.694;9.988;2022-09-09T13:55:20;9.53;;;4.73;;
73142;SDS011;61343;53.694;9.988;2022-09-09T13:57:51;12.60;;;4.30;;
73142;SDS011;61343;53.694;9.988;2022-09-09T14:00:16;8.27;;;4.97;;
73142;SDS011;61343;53.694;9.988;2022-09-09T14:02:41;9.63;;;5.27;;
73142;SDS011;61343;53.694;9.988;2022-09-09T14:05:08;10.65;;;6.40;;
73142;SDS011;61343;53.694;9.988;2022-09-09T14:07:34;14.07;;;6.80;;
73142;SDS011;61343;53.694;9.988;2022-09-09T14:09:59;11.13;;;6.17;;
73142;SDS011;61343;53.694;9.988;2022-09-09T14:12:25;10.85;;;6.63;;
73142;SDS011;61343;53.694;9.988;2022-09-09T14:14:51;11.70;;;5.83;;
73142;SDS011;61343;53.694;9.988;2022-09-09T14:17:16;10.77;;;5.77;;
73142;SDS011;61343;53.694;9.988;2022-09-09T14:19:42;12.73;;;5.80;;
73142;SDS011;61343;53.694;9.988;2022-09-09T14:22:07;9.10;;;5.17;;
73142;SDS011;61343;53.694;9.988;2022-09-09T14:24:32;9.53;;;5.77;;
73142;SDS011;61343;53.694;9.988;2022-09-09T14:26:58;9.23;;;5.83;;
73142;SDS011;61343;53.694;9.988;2022-09-09T14:29:23;9.67;;;5.50;;
73142;SDS011;61343;53.694;9.988;2022-09-09T14:31:49;9.52;;;6.00;;
73142;SDS011;61343;53.694;9.988;2022-09-09T14:34:15;8.97;;;5.80;;
73142;SDS011;61343;53.694;9.988;2022-09-09T14:36:40;9.77;;;5.77;;
73142;SDS011;61343;53.694;9.988;2022-09-09T14:39:06;13.52;;;7.82;;
73142;SDS011;61343;53.694;9.988;2022-09-09T14:41:31;13.37;;;8.20;;
73142;SDS011;61343;53.694;9.988;2022-09-09T14:43:57;11.47;;;6.13;;
73142;SDS011;61343;53.694;9.988;2022-09-09T14:46:22;12.47;;;6.50;;
73142;SDS011;61343;53.694;9.988;2022-09-09T14:48:48;10.55;;;6.18;;
73142;SDS011;61343;53.694;9.988;2022-09-09T14:51:20;9.83;;;6.20;;
73142;SDS011;61343;53.694;9.988;2022-09-09T14:53:53;16.63;;;6.40;;
73142;SDS011;61343;53.694;9.988;2022-09-09T14:56:24;11.07;;;6.15;;
73142;SDS011;61343;53.694;9.988;2022-09-09T14:58:52;10.15;;;6.70;;
73142;SDS011;61343;53.694;9.988;2022-09-09T15:01:20;12.77;;;6.50;;
73142;SDS011;61343;53.694;9.988;2022-09-09T15:03:51;24.60;;;14.23;;
73142;SDS011;61343;53.694;9.988;2022-09-09T15:06:21;23.77;;;14.40;;
73142;SDS011;61343;53.694;9.988;2022-09-09T15:08:49;14.77;;;6.88;;
73142;SDS011;61343;53.694;9.988;2022-09-09T15:11:16;12.55;;;6.40;;
73142;SDS011;61343;53.694;9.988;2022-09-09T15:13:42;13.10;;;6.03;;
73142;SDS011;61343;53.694;9.988;2022-09-09T15:16:09;9.68;;;6.20;;
73142;SDS011;61343;53.694;9.988;2022-09-09T15:18:38;10.57;;;5.95;;
73142;SDS011;61343;53.694;9.988;2022-09-09T15:21:11;9.98;;;6.05;;
73142;SDS011;61343;53.694;9.988;2022-09-09T15:23:39;10.67;;;6.03;;
73142;SDS011;61343;53.694;9.988;2022-09-09T15:26:04;8.98;;;6.00;;
73142;SDS011;61343;53.694;9.988;2022-09-09T15:28:31;9.68;;;6.40;;
73142;SDS011;61343;53.694;9.988;2022-09-09T15:31:02;10.05;;;6.68;;
73142;SDS011;61343;53.694;9.988;2022-09-09T15:33:31;12.40;;;6.60;;
73142;SDS011;61343;53.694;9.988;2022-09-09T15:35:57;12.60;;;5.60;;
73142;SDS011;61343;53.694;9.988;2022-09-09T15:38:22;10.23;;;5.90;;
73142;SDS011;61343;53.694;9.988;2022-09-09T15:40:52;10.40;;;5.90;;
73142;SDS011;61343;53.694;9.988;2022-09-09T15:43:19;9.35;;;5.20;;
73142;SDS011;61343;53.694;9.988;2022-09-09T15:45:45;8.07;;;4.10;;
73142;SDS011;61343;53.694;9.988;2022-09-09T15:48:14;8.40;;;4.30;;
73142;SDS011;61343;53.694;9.988;2022-09-09T15:50:39;7.87;;;4.00;;
73142;SDS011;61343;53.694;9.988;2022-09-09T15:53:05;9.07;;;4.23;;
73142;SDS011;61343;53.694;9.988;2022-09-09T15:55:31;7.60;;;3.42;;
73142;SDS011;61343;53.694;9.988;2022-09-09T15:57:56;5.90;;;3.67;;
73142;SDS011;61343;53.694;9.988;2022-09-09T16:00:22;7.70;;;4.22;;
73142;SDS011;61343;53.694;9.988;2022-09-09T16:02:49;8.98;;;4.50;;
73142;SDS011;61343;53.694;9.988;2022-09-09T16:05:14;8.43;;;3.67;;
73142;SDS011;61343;53.694;9.988;2022-09-09T16:07:40;6.67;;;3.77;;
73142;SDS011;61343;53.694;9.988;2022-09-09T16:10:07;7.25;;;3.20;;
73142;SDS011;61343;53.694;9.988;2022-09-09T16:12:33;7.72;;;3.05;;
73142;SDS011;61343;53.694;9.988;2022-09-09T16:14:58;7.20;;;3.60;;
73142;SDS011;61343;53.694;9.988;2022-09-09T16:17:24;7.50;;;4.00;;
73142;SDS011;61343;53.694;9.988;2022-09-09T16:19:49;6.40;;;2.72;;
73142;SDS011;61343;53.694;9.988;2022-09-09T16:22:15;6.27;;;2.30;;
73142;SDS011;61343;53.694;9.988;2022-09-09T16:24:40;5.83;;;2.47;;
73142;SDS011;61343;53.694;9.988;2022-09-09T16:27:06;6.47;;;2.87;;
73142;SDS011;61343;53.694;9.988;2022-09-09T16:29:31;7.78;;;3.08;;
73142;SDS011;61343;53.694;9.988;2022-09-09T16:31:57;5.57;;;2.57;;
73142;SDS011;61343;53.694;9.988;2022-09-09T16:34:22;7.67;;;2.63;;
73142;SDS011;61343;53.694;9.988;2022-09-09T16:36:47;5.23;;;2.77;;
73142;SDS011;61343;53.694;9.988;2022-09-09T16:39:16;6.63;;;2.70;;
73142;SDS011;61343;53.694;9.988;2022-09-09T16:41:45;7.07;;;3.00;;
73142;SDS011;61343;53.694;9.988;2022-09-09T16:44:12;7.40;;;3.00;;
73142;SDS011;61343;53.694;9.988;2022-09-09T16:46:39;7.32;;;3.10;;
73142;SDS011;61343;53.694;9.988;2022-09-09T16:49:07;6.53;;;2.67;;